Time;durP1;ratioP1;P1;durP2;ratioP2;P2;SDS_P1;SDS_P2;PMS_P1;PMS_P2;Temp;Humidity;BMP_temperature;BMP_pressure;BME280_temperature;BME280_humidity;BME280_pressure;Samples;Min_cycle;Max_cycle;Signal;HPM_P1;HPM_P2
2021/08/17 00:00:20;;;;;;;2.50;1.43;;;;;;;13.41;100.00;100350.47;5093562;28;20436;-72
2021/08/17 00:02:46;;;;;;;5.50;1.60;;;;;;;13.44;100.00;100344.41;5093552;28;20464;-72
2021/08/17 00:05:12;;;;;;;2.77;1.23;;;;;;;13.45;100.00;100351.44;5093074;28;20456;-72
2021/08/17 00:07:39;;;;;;;1.50;1.10;;;;;;;13.52;100.00;100359.09;5092631;28;20964;-72
2021/08/17 00:10:06;;;;;;;0.93;0.63;;;;;;;13.50;100.00;100351.28;5093461;28;20493;-72
2021/08/17 00:12:33;;;;;;;4.03;0.83;;;;;;;13.53;100.00;100355.25;5093087;28;20443;-72
2021/08/17 00:15:01;;;;;;;3.67;1.67;;;;;;;13.54;100.00;100354.13;5093033;28;20886;-72
2021/08/17 00:17:27;;;;;;;1.63;1.53;;;;;;;13.59;100.00;100351.22;5093269;28;20484;-72
2021/08/17 00:19:54;;;;;;;1.20;0.87;;;;;;;13.60;100.00;100350.09;5093344;28;20447;-72
2021/08/17 00:22:23;;;;;;;4.33;1.80;;;;;;;13.59;100.00;100348.50;5093312;28;20444;-72
2021/08/17 00:24:49;;;;;;;1.90;1.37;;;;;;;13.62;100.00;100342.41;5093209;28;20464;-72
2021/08/17 00:27:16;;;;;;;14.70;1.50;;;;;;;13.66;100.00;100348.00;5093235;28;20860;-72
2021/08/17 00:29:42;;;;;;;5.67;1.97;;;;;;;13.70;100.00;100343.50;5093247;28;20440;-72
2021/08/17 00:32:10;;;;;;;1.80;0.93;;;;;;;13.69;100.00;100347.34;5093180;28;20440;-72
2021/08/17 00:34:37;;;;;;;2.10;0.87;;;;;;;13.65;100.00;100351.84;5093147;28;20513;-72
2021/08/17 00:37:04;;;;;;;1.43;1.13;;;;;;;13.69;100.00;100345.41;5093116;28;20480;-72
2021/08/17 00:39:32;;;;;;;1.83;1.03;;;;;;;13.72;100.00;100349.41;5092851;28;20949;-73
2021/08/17 00:41:58;;;;;;;1.60;1.13;;;;;;;13.72;100.00;100342.03;5093118;28;20444;-72
2021/08/17 00:44:26;;;;;;;2.83;1.37;;;;;;;13.75;100.00;100343.31;5093066;28;20460;-73
2021/08/17 00:46:54;;;;;;;0.50;0.47;;;;;;;13.76;100.00;100348.41;5093078;28;20505;-72
2021/08/17 00:49:23;;;;;;;1.27;1.17;;;;;;;13.80;100.00;100343.91;5093031;28;20455;-72
2021/08/17 00:51:51;;;;;;;3.20;1.47;;;;;;;13.81;100.00;100340.09;5092728;28;20933;-73
2021/08/17 00:54:17;;;;;;;19.10;4.20;;;;;;;13.83;100.00;100337.81;5092973;28;20464;-72
2021/08/17 00:56:44;;;;;;;6.73;1.50;;;;;;;13.87;99.98;100338.75;5092973;28;20483;-72
2021/08/17 00:59:11;;;;;;;7.33;1.50;;;;;;;13.83;99.02;100331.56;5092961;28;20441;-72
2021/08/17 01:01:37;;;;;;;1.37;1.10;;;;;;;13.82;98.69;100325.34;5092943;28;20452;-72
2021/08/17 01:04:04;;;;;;;4.63;1.00;;;;;;;13.87;99.71;100321.63;5092813;28;20468;-72
2021/08/17 01:06:32;;;;;;;1.17;0.70;;;;;;;13.91;98.82;100338.09;5092861;28;20445;-72
2021/08/17 01:08:59;;;;;;;13.13;2.60;;;;;;;13.90;99.99;100331.88;5092857;28;20440;-72
2021/08/17 01:11:25;;;;;;;8.83;1.30;;;;;;;13.97;98.44;100339.50;5092849;28;20443;-72
2021/08/17 01:13:52;;;;;;;1.73;1.47;;;;;;;14.00;97.55;100338.84;5092402;28;20868;-70
2021/08/17 01:16:19;;;;;;;1.27;1.17;;;;;;;14.00;99.74;100328.75;5092857;28;20499;-71
2021/08/17 01:18:45;;;;;;;3.07;1.70;;;;;;;14.04;98.76;100328.91;5095510;28;20429;-73
2021/08/17 01:21:12;;;;;;;5.60;0.97;;;;;;;14.06;99.56;100334.78;5096718;28;20445;-78
2021/08/17 01:23:40;;;;;;;1.17;0.90;;;;;;;14.10;98.68;100327.56;5096783;28;20448;-73
2021/08/17 01:26:08;;;;;;;3.27;1.20;;;;;;;14.08;98.94;100322.44;5096027;28;20950;-73
2021/08/17 01:28:34;;;;;;;1.80;1.30;;;;;;;14.09;98.38;100317.81;5096341;28;20440;-73
2021/08/17 01:31:02;;;;;;;3.03;1.10;;;;;;;14.05;99.44;100314.13;5096299;28;20443;-73
2021/08/17 01:33:29;;;;;;;1.37;0.87;;;;;;;13.99;98.54;100318.16;5096247;28;20436;-73
2021/08/17 01:35:56;;;;;;;2.20;1.37;;;;;;;13.92;98.60;100321.44;5096262;28;20439;-73
2021/08/17 01:38:23;;;;;;;2.10;1.40;;;;;;;13.88;98.99;100323.22;5096130;28;20491;-73
2021/08/17 01:40:51;;;;;;;42.80;2.33;;;;;;;13.85;99.56;100312.97;5096112;28;20437;-75
2021/08/17 01:43:19;;;;;;;0.80;0.70;;;;;;;13.90;100.00;100326.41;5096833;28;20445;-77
2021/08/17 01:45:54;;;;;;;2.17;1.47;;;;;;;13.95;100.00;100333.59;5096602;28;20465;-76
2021/08/17 01:48:20;;;;;;;6.70;1.30;;;;;;;14.01;100.00;100326.81;5096254;28;20420;-76
2021/08/17 01:50:46;;;;;;;1.23;0.73;;;;;;;14.04;98.62;100331.63;5096660;28;20436;-76
2021/08/17 01:53:13;;;;;;;2.90;1.50;;;;;;;14.06;97.67;100334.78;5096674;28;20459;-76
2021/08/17 01:55:39;;;;;;;1.93;1.53;;;;;;;14.10;96.45;100343.91;5096664;28;20475;-76
2021/08/17 01:58:06;;;;;;;2.50;0.93;;;;;;;14.09;97.03;100336.88;5096910;28;20484;-77
2021/08/17 02:00:33;;;;;;;2.93;1.30;;;;;;;14.08;96.83;100317.00;5097409;28;20444;-77
2021/08/17 02:03:00;;;;;;;2.80;0.90;;;;;;;14.09;97.44;100328.69;5096504;28;20440;-77
2021/08/17 02:05:26;;;;;;;6.73;1.57;;;;;;;14.10;96.99;100309.28;5096517;28;20456;-76
2021/08/17 02:07:54;;;;;;;1.43;1.10;;;;;;;14.12;96.83;100317.13;5095447;28;20956;-77
2021/08/17 02:10:21;;;;;;;2.20;0.80;;;;;;;14.17;96.08;100305.25;5095447;28;20543;-77
2021/08/17 02:12:47;;;;;;;1.13;0.90;;;;;;;14.17;98.84;100311.50;5095743;28;20894;-76
2021/08/17 02:15:14;;;;;;;2.77;1.93;;;;;;;14.17;96.10;100314.22;5095159;28;20480;-77
2021/08/17 02:17:41;;;;;;;5.70;1.13;;;;;;;14.13;98.28;100314.09;5095508;28;20487;-76
2021/08/17 02:20:08;;;;;;;1.57;1.10;;;;;;;14.14;97.29;100312.16;5095428;28;20440;-76
2021/08/17 02:22:35;;;;;;;3.33;2.10;;;;;;;14.16;97.36;100315.31;5095517;28;20444;-76
2021/08/17 02:25:01;;;;;;;1.80;1.20;;;;;;;14.25;96.88;100316.06;5095459;28;20850;-77
2021/08/17 02:27:33;;;;;;;3.80;1.27;;;;;;;14.29;96.15;100311.53;5095603;28;20443;-77
2021/08/17 02:29:59;;;;;;;1.53;1.13;;;;;;;14.30;95.24;100312.38;5094781;28;20440;-76
2021/08/17 02:32:25;;;;;;;2.10;1.23;;;;;;;14.24;95.05;100309.03;5095712;28;20447;-77
2021/08/17 02:34:53;;;;;;;1.90;0.60;;;;;;;14.25;94.64;100318.78;5095703;28;20460;-76
2021/08/17 02:37:20;;;;;;;1.40;0.77;;;;;;;14.27;93.85;100302.13;5095564;28;20483;-76
2021/08/17 02:39:46;;;;;;;2.60;1.07;;;;;;;14.26;95.02;100301.34;5095328;28;20448;-76
2021/08/17 02:42:12;;;;;;;1.43;0.87;;;;;;;14.26;94.23;100305.97;5095031;28;20444;-76
2021/08/17 02:44:39;;;;;;;2.00;1.47;;;;;;;14.19;94.24;100290.16;5094664;28;20972;-73
2021/08/17 02:47:05;;;;;;;1.17;0.60;;;;;;;14.25;96.82;100305.16;5094835;28;20447;-73
2021/08/17 02:49:33;;;;;;;2.30;1.50;;;;;;;14.28;96.86;100307.22;5094871;28;20445;-72
2021/08/17 02:52:03;;;;;;;1.20;0.90;;;;;;;14.34;94.60;100303.19;5094627;28;20483;-72
2021/08/17 02:54:30;;;;;;;2.80;1.10;;;;;;;14.34;95.29;100305.91;5094531;28;20456;-72
2021/08/17 02:56:56;;;;;;;2.93;1.10;;;;;;;14.39;94.33;100304.91;5094540;28;20487;-73
2021/08/17 02:59:23;;;;;;;6.20;1.67;;;;;;;14.45;94.25;100300.84;5094559;28;20436;-72
2021/08/17 03:01:49;;;;;;;2.67;1.23;;;;;;;14.45;92.91;100298.13;5094566;28;20450;-75
2021/08/17 03:04:16;;;;;;;1.33;1.03;;;;;;;14.45;92.78;100306.31;5094421;28;20465;-74
2021/08/17 03:06:42;;;;;;;1.43;1.07;;;;;;;14.46;93.47;100305.16;5094428;28;20440;-73
2021/08/17 03:09:10;;;;;;;6.30;0.77;;;;;;;14.46;92.70;100298.91;5094449;28;20467;-74
2021/08/17 03:11:36;;;;;;;1.10;0.97;;;;;;;14.47;93.12;100304.03;5094333;28;20447;-75
2021/08/17 03:14:04;;;;;;;1.60;1.10;;;;;;;14.40;94.64;100306.50;5094096;28;20472;-74
2021/08/17 03:16:31;;;;;;;1.20;1.07;;;;;;;14.40;93.88;100298.31;5094276;28;20428;-74
2021/08/17 03:18:57;;;;;;;1.33;1.00;;;;;;;14.45;94.24;100309.03;5094181;28;20436;-74
2021/08/17 03:21:24;;;;;;;1.07;0.70;;;;;;;14.46;94.14;100318.00;5094168;28;20796;-74
2021/08/17 03:23:51;;;;;;;1.23;1.13;;;;;;;14.50;95.37;100324.41;5094035;28;20448;-73
2021/08/17 03:26:19;;;;;;;6.17;1.43;;;;;;;14.54;94.48;100328.84;5094069;28;20440;-74
2021/08/17 03:28:46;;;;;;;1.03;0.93;;;;;;;14.54;94.47;100331.56;5094074;28;20448;-73
2021/08/17 03:31:13;;;;;;;1.10;1.00;;;;;;;14.55;93.06;100324.19;5093891;28;20456;-73
2021/08/17 03:33:39;;;;;;;1.77;1.10;;;;;;;14.58;93.27;100334.44;5093896;28;20444;-74
2021/08/17 03:36:06;;;;;;;2.07;1.73;;;;;;;14.60;92.82;100332.16;5093874;28;20452;-74
2021/08/17 03:38:33;;;;;;;2.20;1.17;;;;;;;14.56;93.43;100321.13;5093856;28;20488;-73
2021/08/17 03:41:00;;;;;;;1.63;1.20;;;;;;;14.59;93.09;100327.84;5093290;28;20949;-73
2021/08/17 03:43:28;;;;;;;19.00;3.33;;;;;;;14.54;93.20;100333.50;5093557;28;20428;-74
2021/08/17 03:45:55;;;;;;;0.93;0.87;;;;;;;14.56;93.30;100334.75;5093676;28;20460;-74
2021/08/17 03:48:22;;;;;;;1.73;1.63;;;;;;;14.63;92.86;100331.50;5093359;28;20436;-73
2021/08/17 03:50:49;;;;;;;2.10;1.07;;;;;;;14.62;94.39;100338.09;5093686;28;20447;-73
2021/08/17 03:53:15;;;;;;;2.87;1.40;;;;;;;14.63;93.85;100332.31;5093624;28;20449;-73
2021/08/17 03:55:42;;;;;;;1.57;1.40;;;;;;;14.67;93.87;100332.44;5093588;28;20456;-74
2021/08/17 03:58:08;;;;;;;3.30;1.90;;;;;;;14.67;93.95;100328.91;5093121;28;21005;-74
2021/08/17 04:00:36;;;;;;;3.17;1.70;;;;;;;14.64;93.73;100336.63;5093530;28;20443;-74
2021/08/17 04:03:03;;;;;;;1.60;1.20;;;;;;;14.69;93.38;100323.91;5093513;28;20439;-74
2021/08/17 04:05:30;;;;;;;4.50;2.20;;;;;;;14.73;93.79;100333.81;5093326;28;20460;-74
2021/08/17 04:07:56;;;;;;;1.00;0.83;;;;;;;14.71;93.75;100336.09;5093514;28;20441;-74
2021/08/17 04:10:23;;;;;;;2.77;2.00;;;;;;;14.77;93.79;100337.47;5093436;28;20506;-74
2021/08/17 04:12:50;;;;;;;1.33;1.03;;;;;;;14.79;93.87;100345.31;5093338;28;20441;-74
2021/08/17 04:15:16;;;;;;;3.40;1.17;;;;;;;14.82;94.84;100337.25;5092966;28;20476;-74
2021/08/17 04:17:44;;;;;;;2.47;0.90;;;;;;;14.81;94.57;100348.50;5093348;28;20887;-74
2021/08/17 04:20:12;;;;;;;1.80;1.30;;;;;;;14.84;93.94;100347.84;5093381;28;20437;-74
2021/08/17 04:22:39;;;;;;;1.60;1.17;;;;;;;14.88;94.33;100344.09;5093371;28;20444;-74
2021/08/17 04:25:06;;;;;;;0.97;0.87;;;;;;;14.89;94.60;100347.63;5092941;28;20988;-74
2021/08/17 04:27:33;;;;;;;4.50;2.90;;;;;;;14.89;94.66;100353.88;5093387;28;20462;-75
2021/08/17 04:30:00;;;;;;;2.73;1.13;;;;;;;14.94;94.90;100354.81;5093600;28;20456;-74
2021/08/17 04:32:26;;;;;;;0.93;0.83;;;;;;;14.95;94.46;100346.28;5093296;28;20448;-74
2021/08/17 04:34:54;;;;;;;2.70;1.17;;;;;;;14.97;93.81;100346.75;5093261;28;20468;-77
2021/08/17 04:37:20;;;;;;;8.00;2.00;;;;;;;15.01;94.47;100342.22;5093201;28;20479;-75
2021/08/17 04:39:47;;;;;;;2.97;1.47;;;;;;;15.04;94.16;100349.72;5093196;28;20453;-75
2021/08/17 04:42:13;;;;;;;2.70;1.40;;;;;;;15.08;94.53;100344.38;5094556;28;20459;-75
2021/08/17 04:44:40;;;;;;;1.23;1.13;;;;;;;15.10;94.14;100348.38;5093146;28;20468;-76
2021/08/17 04:47:06;;;;;;;1.30;1.20;;;;;;;15.12;94.64;100359.75;5093199;28;20463;-75
2021/08/17 04:49:32;;;;;;;2.93;1.40;;;;;;;15.10;93.39;100356.56;5093149;28;20452;-75
2021/08/17 04:52:00;;;;;;;4.43;1.30;;;;;;;15.16;93.99;100354.41;5093345;28;20459;-75
2021/08/17 04:54:27;;;;;;;0.83;0.83;;;;;;;15.21;93.08;100364.31;5096995;28;20460;-75
2021/08/17 04:56:53;;;;;;;1.27;1.17;;;;;;;15.18;94.21;100373.97;5096746;28;20960;-75
2021/08/17 04:59:20;;;;;;;1.07;0.97;;;;;;;15.21;94.49;100362.38;5096872;28;20484;-75
2021/08/17 05:01:48;;;;;;;1.67;0.70;;;;;;;15.24;93.83;100367.16;5096932;28;20451;-75
2021/08/17 05:04:14;;;;;;;3.67;1.77;;;;;;;15.26;93.48;100375.00;5096451;28;20895;-74
2021/08/17 05:06:41;;;;;;;1.97;1.33;;;;;;;15.29;93.40;100382.53;5096871;28;20455;-75
2021/08/17 05:09:08;;;;;;;5.63;1.40;;;;;;;15.33;93.19;100381.50;5096737;28;20432;-75
2021/08/17 05:11:35;;;;;;;6.13;1.23;;;;;;;15.34;92.88;100377.66;5096788;28;20842;-75
2021/08/17 05:14:01;;;;;;;1.83;1.27;;;;;;;15.36;93.69;100383.56;5096467;28;20476;-75
2021/08/17 05:16:28;;;;;;;2.87;1.40;;;;;;;15.41;92.51;100392.69;5096682;28;20450;-75
2021/08/17 05:18:54;;;;;;;1.70;1.00;;;;;;;15.46;93.25;100387.00;5096513;28;20865;-75
2021/08/17 05:21:22;;;;;;;2.20;0.83;;;;;;;15.53;92.85;100395.41;5096196;28;20945;-75
2021/08/17 05:23:48;;;;;;;5.70;0.97;;;;;;;15.51;92.97;100403.16;5096435;28;20543;-74
2021/08/17 05:26:16;;;;;;;1.13;1.00;;;;;;;15.47;92.23;100400.31;5096430;28;20440;-74
2021/08/17 05:28:43;;;;;;;7.50;1.40;;;;;;;15.51;93.02;100395.75;5096422;28;20449;-75
2021/08/17 05:31:09;;;;;;;3.30;0.97;;;;;;;15.53;93.33;100395.41;5096329;28;20451;-75
2021/08/17 05:33:35;;;;;;;5.00;1.80;;;;;;;15.49;94.70;100408.16;5096265;28;20451;-75
2021/08/17 05:36:02;;;;;;;2.93;0.93;;;;;;;15.45;94.06;100418.16;5096339;28;20448;-75
2021/08/17 05:38:28;;;;;;;1.80;1.10;;;;;;;15.46;94.16;100428.75;5096167;28;20476;-73
2021/08/17 05:40:55;;;;;;;4.13;1.27;;;;;;;15.44;94.89;100431.00;5096180;28;20440;-74
2021/08/17 05:43:23;;;;;;;5.10;1.20;;;;;;;15.44;94.37;100430.22;5095866;28;20432;-75
2021/08/17 05:45:49;;;;;;;5.50;1.00;;;;;;;15.47;95.02;100433.06;5095993;28;20456;-75
2021/08/17 05:48:16;;;;;;;4.10;0.80;;;;;;;15.53;94.47;100428.19;5096036;28;20448;-74
2021/08/17 05:50:42;;;;;;;4.50;1.03;;;;;;;15.41;95.99;100430.91;5095953;28;20447;-75
2021/08/17 05:53:09;;;;;;;15.53;1.83;;;;;;;15.39;95.00;100429.28;5095846;28;20455;-74
2021/08/17 05:55:35;;;;;;;2.30;1.50;;;;;;;15.35;95.74;100433.03;5095816;28;20457;-75
2021/08/17 05:58:03;;;;;;;2.10;1.13;;;;;;;15.34;96.96;100440.41;5095793;28;20483;-75
2021/08/17 06:00:31;;;;;;;2.47;1.20;;;;;;;15.27;97.43;100453.84;5095481;28;20830;-75
2021/08/17 06:02:58;;;;;;;4.93;1.17;;;;;;;15.26;96.75;100451.41;5095746;28;20451;-74
2021/08/17 06:05:26;;;;;;;10.67;1.63;;;;;;;15.30;96.62;100460.53;5095648;28;20453;-74
2021/08/17 06:07:52;;;;;;;6.13;1.83;;;;;;;15.38;96.73;100455.00;5095724;28;20437;-76
2021/08/17 06:10:20;;;;;;;2.83;1.53;;;;;;;15.52;96.17;100462.06;5095587;28;20440;-75
2021/08/17 06:12:46;;;;;;;2.93;1.37;;;;;;;15.58;95.94;100458.00;5095613;28;20440;-74
2021/08/17 06:15:15;;;;;;;5.27;1.50;;;;;;;15.66;94.81;100476.25;5095097;28;20479;-74
2021/08/17 06:17:43;;;;;;;1.23;1.13;;;;;;;15.81;93.51;100466.63;5095138;28;20991;-73
2021/08/17 06:20:11;;;;;;;8.60;2.17;;;;;;;15.86;93.15;100459.00;5095416;28;20440;-74
2021/08/17 06:22:37;;;;;;;12.17;1.90;;;;;;;15.94;93.99;100475.59;5095420;28;20448;-74
2021/08/17 06:25:04;;;;;;;8.53;1.70;;;;;;;15.98;91.75;100471.88;5095305;28;20471;-73
2021/08/17 06:27:31;;;;;;;6.30;1.37;;;;;;;15.84;92.43;100477.66;5095294;28;20497;-73
2021/08/17 06:29:57;;;;;;;5.67;1.30;;;;;;;15.81;92.37;100478.34;5095219;28;20436;-74
2021/08/17 06:32:24;;;;;;;4.83;2.00;;;;;;;15.85;92.76;100475.75;5095213;28;20436;-74
2021/08/17 06:34:52;;;;;;;2.33;1.00;;;;;;;15.76;92.66;100475.84;5094772;28;20969;-73
2021/08/17 06:37:18;;;;;;;2.00;1.10;;;;;;;15.82;92.86;100473.69;5095096;28;20436;-73
2021/08/17 06:39:44;;;;;;;2.40;1.47;;;;;;;15.81;91.97;100483.81;5094933;28;20495;-74
2021/08/17 06:42:11;;;;;;;8.23;1.23;;;;;;;15.75;92.35;100489.81;5094675;28;20436;-74
2021/08/17 06:44:37;;;;;;;2.80;1.40;;;;;;;15.72;92.79;100485.03;5094635;28;20989;-74
2021/08/17 06:47:04;;;;;;;10.80;1.70;;;;;;;15.80;92.71;100484.91;5094866;28;20452;-74
2021/08/17 06:49:30;;;;;;;3.77;1.50;;;;;;;15.79;92.86;100486.06;5094522;28;20941;-73
2021/08/17 06:51:58;;;;;;;3.80;1.00;;;;;;;15.87;92.10;100490.63;5094821;28;20447;-74
2021/08/17 06:54:25;;;;;;;2.60;1.10;;;;;;;15.95;91.70;100494.41;5094676;28;20479;-75
2021/08/17 06:56:51;;;;;;;2.33;1.13;;;;;;;15.99;93.15;100491.81;5094440;28;20941;-74
2021/08/17 06:59:17;;;;;;;1.93;1.50;;;;;;;16.03;91.35;100498.97;5094607;28;20491;-73
2021/08/17 07:01:44;;;;;;;6.63;2.13;;;;;;;16.13;90.73;100509.47;5094616;28;20448;-72
2021/08/17 07:04:10;;;;;;;4.50;1.43;;;;;;;16.20;90.34;100500.69;5094469;28;20888;-73
2021/08/17 07:06:37;;;;;;;10.03;1.80;;;;;;;16.29;90.03;100495.94;5094518;28;20814;-73
2021/08/17 07:09:05;;;;;;;3.47;1.47;;;;;;;16.41;89.83;100492.38;5094403;28;20968;-75
2021/08/17 07:11:32;;;;;;;5.80;1.47;;;;;;;16.57;88.42;100500.69;5094963;28;20444;-76
2021/08/17 07:13:59;;;;;;;1.83;0.80;;;;;;;16.70;87.77;100505.00;5094584;28;20487;-76
2021/08/17 07:16:25;;;;;;;2.70;1.13;;;;;;;16.78;86.91;100509.59;5094302;28;20448;-75
2021/08/17 07:18:51;;;;;;;2.13;1.10;;;;;;;16.82;86.18;100513.22;5094406;28;21012;-75
2021/08/17 07:21:18;;;;;;;2.10;1.43;;;;;;;16.71;87.61;100514.00;5094291;28;20445;-76
2021/08/17 07:23:44;;;;;;;5.40;1.50;;;;;;;16.71;86.34;100520.28;5094153;28;20451;-74
2021/08/17 07:26:12;;;;;;;7.53;1.20;;;;;;;16.54;87.66;100510.38;5094142;28;20441;-74
2021/08/17 07:28:39;;;;;;;1.90;1.10;;;;;;;16.65;87.58;100527.13;5094114;28;20448;-74
2021/08/17 07:31:05;;;;;;;2.90;1.20;;;;;;;16.63;87.32;100518.44;5094052;28;20441;-73
2021/08/17 07:33:32;;;;;;;6.50;1.20;;;;;;;16.60;87.15;100511.75;5093774;28;20444;-73
2021/08/17 07:35:58;;;;;;;3.43;1.30;;;;;;;16.58;87.29;100526.91;5093969;28;20444;-73
2021/08/17 07:38:25;;;;;;;2.80;1.00;;;;;;;16.53;89.98;100536.13;5093857;28;20479;-73
2021/08/17 07:40:51;;;;;;;2.80;1.37;;;;;;;16.28;91.93;100524.38;5093927;28;20447;-74
2021/08/17 07:43:19;;;;;;;1.40;0.77;;;;;;;16.08;92.52;100526.06;5093804;28;20440;-74
2021/08/17 07:45:46;;;;;;;1.67;1.40;;;;;;;15.91;93.69;100525.47;5093808;28;20467;-73
2021/08/17 07:48:12;;;;;;;2.00;1.30;;;;;;;15.86;94.88;100540.94;5093803;28;20440;-74
2021/08/17 07:50:39;;;;;;;3.37;1.07;;;;;;;15.91;94.26;100530.94;5093442;28;20807;-73
2021/08/17 07:53:07;;;;;;;1.83;1.40;;;;;;;15.97;94.18;100526.84;5093668;28;20488;-73
2021/08/17 07:55:33;;;;;;;9.50;1.00;;;;;;;16.01;94.90;100538.69;5093285;28;20491;-74
2021/08/17 07:57:59;;;;;;;1.57;1.30;;;;;;;16.00;93.82;100539.84;5093643;28;20440;-73
2021/08/17 08:00:27;;;;;;;4.00;1.37;;;;;;;15.93;94.40;100555.97;5093432;28;20480;-73
2021/08/17 08:02:54;;;;;;;0.97;0.87;;;;;;;15.86;93.76;100565.53;5093633;28;20452;-71
2021/08/17 08:05:20;;;;;;;5.63;2.10;;;;;;;15.84;94.29;100554.13;5093430;28;20464;-72
2021/08/17 08:07:47;;;;;;;2.97;1.13;;;;;;;15.88;93.99;100559.72;5093073;28;20449;-73
2021/08/17 08:10:13;;;;;;;9.13;1.00;;;;;;;15.92;93.32;100554.38;5093505;28;20463;-73
2021/08/17 08:12:40;;;;;;;2.20;1.33;;;;;;;16.14;93.47;100562.97;5093182;28;20451;-72
2021/08/17 08:15:07;;;;;;;8.03;1.17;;;;;;;16.23;92.61;100576.53;5092911;28;20484;-73
2021/08/17 08:17:35;;;;;;;6.53;1.33;;;;;;;16.33;92.24;100576.09;5093417;28;20444;-73
2021/08/17 08:20:01;;;;;;;4.20;1.90;;;;;;;16.39;90.98;100574.75;5093380;28;20831;-72
2021/08/17 08:22:28;;;;;;;2.50;1.53;;;;;;;16.49;90.19;100578.97;5093146;28;20440;-72
2021/08/17 08:24:54;;;;;;;3.10;0.87;;;;;;;16.69;89.83;100590.94;5093332;28;20457;-72
2021/08/17 08:27:21;;;;;;;1.00;0.90;;;;;;;16.73;87.21;100586.38;5094233;28;20444;-71
2021/08/17 08:29:47;;;;;;;2.27;1.30;;;;;;;16.66;87.92;100575.22;5097560;28;20444;-72
2021/08/17 08:32:14;;;;;;;4.10;1.17;;;;;;;16.69;87.90;100577.28;5097259;28;20917;-72
2021/08/17 08:34:42;;;;;;;1.37;1.10;;;;;;;16.72;88.40;100587.53;5097453;28;20497;-72
2021/08/17 08:37:08;;;;;;;2.30;1.30;;;;;;;16.62;87.14;100594.25;5097393;28;20440;-72
2021/08/17 08:39:35;;;;;;;1.30;1.00;;;;;;;16.59;88.37;100580.44;5097306;28;20480;-72
2021/08/17 08:42:02;;;;;;;6.33;1.33;;;;;;;16.65;87.69;100587.28;5097350;28;20443;-72
2021/08/17 08:44:29;;;;;;;9.27;1.20;;;;;;;16.70;88.25;100594.47;5097255;28;20468;-71
2021/08/17 08:46:56;;;;;;;2.07;1.13;;;;;;;16.76;88.24;100601.34;5097210;28;20432;-72
2021/08/17 08:49:23;;;;;;;5.87;1.30;;;;;;;16.87;88.12;100608.75;5097266;28;20844;-71
2021/08/17 08:51:51;;;;;;;2.03;1.20;;;;;;;17.00;87.75;100604.06;5097308;28;20459;-71
2021/08/17 08:54:17;;;;;;;1.93;1.30;;;;;;;17.05;85.78;100611.25;5097064;28;20547;-71
2021/08/17 08:56:45;;;;;;;1.90;0.97;;;;;;;16.95;86.71;100606.22;5097085;28;20440;-71
2021/08/17 08:59:12;;;;;;;1.97;1.77;;;;;;;17.06;85.39;100610.91;5097010;28;20503;-72
2021/08/17 09:01:38;;;;;;;3.40;1.13;;;;;;;17.22;84.91;100611.00;5097073;28;20452;-72
2021/08/17 09:04:05;;;;;;;4.53;1.13;;;;;;;17.33;83.85;100617.56;5096923;28;20467;-72
2021/08/17 09:06:33;;;;;;;3.90;1.97;;;;;;;17.29;84.17;100615.88;5096966;28;20440;-71
2021/08/17 09:09:10;;;;;;;2.50;1.30;;;;;;;17.37;84.83;100610.25;5096833;28;20440;-72
2021/08/17 09:11:39;;;;;;;5.10;1.40;;;;;;;17.46;83.42;100607.38;5096925;28;20455;-72
2021/08/17 09:14:26;;;;;;;6.40;1.53;;;;;;;17.37;82.82;100606.72;5096255;28;20977;-72
2021/08/17 09:16:54;;;;;;;2.33;0.90;;;;;;;17.20;82.95;100615.22;5096727;28;20428;-72
2021/08/17 09:19:25;;;;;;;4.03;1.10;;;;;;;17.11;84.54;100612.59;5096439;28;20546;-72
2021/08/17 09:21:52;;;;;;;2.60;1.17;;;;;;;17.03;84.58;100611.56;5096676;28;20444;-72
2021/08/17 09:24:23;;;;;;;3.20;1.47;;;;;;;17.21;85.77;100620.31;5096472;28;20471;-72
2021/08/17 09:26:51;;;;;;;4.07;1.47;;;;;;;17.32;83.93;100626.94;5096294;28;20432;-72
2021/08/17 09:29:23;;;;;;;2.83;1.20;;;;;;;17.30;83.62;100617.47;5096472;28;20814;-72
2021/08/17 09:31:52;;;;;;;4.30;0.83;;;;;;;17.34;83.52;100619.16;5096181;28;20962;-72
2021/08/17 09:34:19;;;;;;;9.83;1.10;;;;;;;17.32;83.24;100607.78;5096261;28;20499;-71
2021/08/17 09:36:47;;;;;;;4.73;0.83;;;;;;;17.22;83.16;100626.59;5096393;28;20468;-73
2021/08/17 09:39:29;;;;;;;10.30;1.90;;;;;;;17.17;82.72;100629.56;5095642;28;20476;-73
2021/08/17 09:42:21;;;;;;;2.90;1.57;;;;;;;17.02;83.45;100612.72;5096288;28;20460;-72
2021/08/17 09:45:02;;;;;;;7.43;1.97;;;;;;;16.88;83.41;100620.50;5093803;28;20457;-72
2021/08/17 09:47:30;;;;;;;6.83;1.37;;;;;;;16.97;83.11;100623.91;5096176;28;20543;-72
2021/08/17 09:49:56;;;;;;;1.10;0.93;;;;;;;17.06;83.36;100632.00;5096065;28;20439;-72
2021/08/17 09:52:23;;;;;;;5.47;1.50;;;;;;;17.11;84.11;100621.59;5096026;28;20436;-76
2021/08/17 09:54:51;;;;;;;2.80;1.17;;;;;;;17.20;84.34;100624.22;5096497;28;20472;-77
2021/08/17 09:57:17;;;;;;;3.73;1.13;;;;;;;17.29;83.23;100627.63;5097471;28;20452;-77
2021/08/17 09:59:45;;;;;;;2.17;1.30;;;;;;;17.27;82.40;100629.91;5097243;28;20480;-77
2021/08/17 10:02:12;;;;;;;4.30;1.63;;;;;;;17.26;83.62;100622.81;5096602;28;20455;-76
2021/08/17 10:04:41;;;;;;;5.47;1.70;;;;;;;17.29;83.50;100635.03;5096398;28;20464;-74
2021/08/17 10:07:09;;;;;;;5.20;2.10;;;;;;;17.28;81.71;100636.97;5095798;28;20448;-74
2021/08/17 10:09:37;;;;;;;2.20;1.40;;;;;;;17.29;81.87;100627.63;5095747;28;20443;-70
2021/08/17 10:12:07;;;;;;;4.47;1.67;;;;;;;17.23;80.28;100634.50;5095598;28;20448;-73
2021/08/17 10:14:35;;;;;;;6.17;1.50;;;;;;;17.31;81.95;100625.34;5095271;28;20494;-72
2021/08/17 10:17:01;;;;;;;3.17;1.20;;;;;;;17.43;80.99;100631.94;5095560;28;20451;-71
2021/08/17 10:19:32;;;;;;;2.57;1.07;;;;;;;17.47;78.67;100627.34;5095454;28;20483;-72
2021/08/17 10:22:01;;;;;;;3.50;2.13;;;;;;;17.63;79.72;100623.53;5095148;28;20929;-71
2021/08/17 10:24:31;;;;;;;12.53;1.43;;;;;;;17.61;78.58;100622.28;5095461;28;20477;-70
2021/08/17 10:27:20;;;;;;;7.77;1.47;;;;;;;17.60;77.77;100634.41;5095069;28;20444;-71
2021/08/17 10:30:17;;;;;;;2.20;0.97;;;;;;;17.68;78.11;100619.75;5095351;28;20425;-71
2021/08/17 10:32:53;;;;;;;10.97;1.33;;;;;;;17.76;75.04;100623.53;5081973;28;20551;-72
2021/08/17 10:35:53;;;;;;;1.93;1.13;;;;;;;17.66;76.89;100641.22;5095093;28;20500;-72
2021/08/17 10:38:41;;;;;;;2.80;1.10;;;;;;;17.51;79.29;100640.00;5094593;28;20509;-72
2021/08/17 10:41:09;;;;;;;3.83;1.37;;;;;;;17.31;79.01;100650.00;5095637;28;20475;-70
2021/08/17 10:44:11;;;;;;;1.83;1.23;;;;;;;17.17;80.16;100659.69;5094285;28;20814;-72
2021/08/17 10:46:51;;;;;;;3.97;0.77;;;;;;;17.18;82.27;100653.88;5094360;28;20801;-72
2021/08/17 10:49:39;;;;;;;2.80;1.03;;;;;;;17.11;83.92;100645.44;5094050;28;20420;-72
2021/08/17 10:52:07;;;;;;;3.33;1.70;;;;;;;17.10;81.61;100647.38;5092656;28;20448;-71
2021/08/17 10:54:35;;;;;;;10.90;1.50;;;;;;;17.26;80.83;100652.94;5093748;28;21026;-72
2021/08/17 10:57:17;;;;;;;1.40;1.20;;;;;;;17.49;80.01;100652.47;5094375;28;20956;-71
2021/08/17 10:59:45;;;;;;;5.73;1.10;;;;;;;17.48;78.60;100661.81;5094684;28;20484;-73
2021/08/17 11:02:13;;;;;;;6.30;1.13;;;;;;;17.17;80.94;100667.91;5094385;28;20471;-70
2021/08/17 11:04:42;;;;;;;6.10;2.00;;;;;;;16.47;86.75;100674.22;5094527;28;20465;-73
2021/08/17 11:07:30;;;;;;;1.47;1.20;;;;;;;16.05;89.72;100673.50;5094572;28;20452;-73
2021/08/17 11:09:57;;;;;;;3.60;1.20;;;;;;;15.74;92.14;100682.13;5094225;28;20880;-73
2021/08/17 11:12:32;;;;;;;1.40;0.80;;;;;;;15.55;94.05;100671.63;5094250;28;20428;-73
2021/08/17 11:14:58;;;;;;;1.50;1.20;;;;;;;15.51;96.43;100676.97;5094041;28;20479;-73
2021/08/17 11:17:26;;;;;;;1.50;0.90;;;;;;;15.39;96.72;100680.41;5094073;28;20956;-74
2021/08/17 11:19:54;;;;;;;3.00;1.63;;;;;;;15.38;96.73;100678.81;5094535;28;20484;-76
2021/08/17 11:22:24;;;;;;;2.53;1.13;;;;;;;15.36;95.95;100685.72;5093970;28;21013;-75
2021/08/17 11:24:53;;;;;;;1.50;1.40;;;;;;;15.46;98.81;100673.63;5093835;28;20848;-74
2021/08/17 11:27:21;;;;;;;1.67;0.93;;;;;;;15.49;97.93;100675.69;5094125;28;20543;-75